< < Back
Terminal Aerodrome Forecast


Current Version              Previous Versions:   1  2  3  4  5  6  7  8  9  

Terminal Aerodrome Forecast

661
FTUS42 KTAE 212332
TAFVLD
TAF
KVLD 212332Z 2200/2224 VRB05KT P6SM SKC
     FM220700 32004KT P6SM SKC
     FM221200 02006KT P6SM SKC=



Latest METAR

708
SAUS70 KWBC 220700 RRL
MTRVLD
METAR KVLD 220653Z AUTO 00000KT 10SM CLR 21/18 A3002 RMK AO2 SLP172
T02110178 TSNO


USA.gov is the U.S. government's official web portal to all federal, state and local government web resources and services.